Terminal Aerodrome Forecast
Issued by NWS Bismarck, ND

Home | Current Version | Previous Version | Graphics & Text | Print | Product List | Glossary On
Versions: 1 2 3 4 5 6 7 8 9 10 11 12 13 14 15 16 17 18 19 20 21 22 23 24 25 26 27 28 29 30 31 32
000
FTUS43 KBIS 252123 AAC
TAFBIS
TAF AMD
KBIS 252123Z 2521/2618 12005KT P6SM VCTS SCT040CB
      TEMPO 2521/2523 TSRA BKN020 OVC050CB
     FM252300 25012KT P6SM VCTS SCT040CB SCT070
     FM260300 27010KT P6SM BKN110
     FM261000 27006KT P6SM SCT050=

USA.gov is the U.S. government's official web portal to all federal, state and local government web resources and services.